createdAt,value
2017-09-03T00:00:42.770Z,12.59
2017-09-03T00:03:10.328Z,12.57
2017-09-03T00:05:37.717Z,12.58
2017-09-03T00:08:05.114Z,12.56
2017-09-03T00:10:32.531Z,12.59
2017-09-03T00:12:59.931Z,12.60
2017-09-03T00:15:27.339Z,12.59
2017-09-03T00:17:54.773Z,12.57
2017-09-03T00:20:22.174Z,12.55
2017-09-03T00:22:49.578Z,12.55
2017-09-03T00:25:17.126Z,12.54
2017-09-03T00:27:44.523Z,12.53
2017-09-03T00:30:11.920Z,12.51
2017-09-03T00:32:39.335Z,12.48
2017-09-03T00:35:06.734Z,12.40
2017-09-03T00:37:34.125Z,12.38
2017-09-03T00:40:01.531Z,12.33
2017-09-03T00:42:28.923Z,12.26
2017-09-03T00:44:56.318Z,12.31
2017-09-03T00:47:23.738Z,12.27
2017-09-03T00:49:51.138Z,12.19
2017-09-03T00:52:18.534Z,12.14
2017-09-03T00:54:46.039Z,12.05
2017-09-03T00:57:13.430Z,12.04
2017-09-03T00:59:40.827Z,12.04
2017-09-03T01:02:08.375Z,12.12
2017-09-03T01:04:35.770Z,12.17
2017-09-03T01:07:03.164Z,12.11
2017-09-03T01:09:30.736Z,12.09
2017-09-03T01:11:58.122Z,12.17
2017-09-03T01:14:25.524Z,12.20
2017-09-03T01:16:53.063Z,12.21
2017-09-03T01:19:20.456Z,12.21
2017-09-03T01:21:47.845Z,12.17
2017-09-03T01:24:15.370Z,12.15
2017-09-03T01:26:42.750Z,12.04
2017-09-03T01:29:10.142Z,11.99
2017-09-03T01:31:37.589Z,12.02
2017-09-03T01:34:04.991Z,11.97
2017-09-03T01:36:32.387Z,11.95
2017-09-03T01:38:59.803Z,11.94
2017-09-03T01:41:27.195Z,11.99
2017-09-03T01:43:54.593Z,12.05
2017-09-03T01:46:22.023Z,12.09
2017-09-03T01:48:49.739Z,12.09
2017-09-03T01:51:17.134Z,12.08
2017-09-03T01:53:44.689Z,12.04
2017-09-03T01:56:12.086Z,11.99
2017-09-03T01:58:39.478Z,11.95
2017-09-03T02:01:06.884Z,11.94
2017-09-03T02:03:41.830Z,11.90
2017-09-03T02:06:09.235Z,11.83
2017-09-03T02:08:36.633Z,11.75
2017-09-03T02:11:04.027Z,11.63
2017-09-03T02:13:31.578Z,11.71
2017-09-03T02:15:58.988Z,11.67
2017-09-03T02:18:26.372Z,11.52
2017-09-03T02:20:53.923Z,11.55
2017-09-03T02:23:21.318Z,11.67
2017-09-03T02:25:48.711Z,11.71
2017-09-03T02:28:16.263Z,11.75
2017-09-03T02:30:43.658Z,11.75
2017-09-03T02:33:11.054Z,11.77
2017-09-03T02:35:38.624Z,11.80
2017-09-03T02:38:06.017Z,11.82
2017-09-03T02:40:33.410Z,11.83
2017-09-03T02:43:00.973Z,11.81
2017-09-03T02:45:28.364Z,11.77
2017-09-03T02:47:55.761Z,11.60
2017-09-03T02:50:23.178Z,11.59
2017-09-03T02:52:50.576Z,11.62
2017-09-03T02:55:17.970Z,11.65
2017-09-03T02:57:45.559Z,11.67
2017-09-03T03:00:12.975Z,11.63
2017-09-03T03:02:40.343Z,11.55
2017-09-03T03:05:07.891Z,11.48
2017-09-03T03:07:35.287Z,11.41
2017-09-03T03:10:02.687Z,11.48
2017-09-03T03:12:30.234Z,11.45
2017-09-03T03:14:57.631Z,11.51
2017-09-03T03:17:25.022Z,11.55
2017-09-03T03:19:52.442Z,11.56
2017-09-03T03:22:19.851Z,11.51
2017-09-03T03:24:47.255Z,11.48
2017-09-03T03:27:14.706Z,11.52
2017-09-03T03:29:42.108Z,11.51
2017-09-03T03:32:09.503Z,11.51
2017-09-03T03:34:37.051Z,11.53
2017-09-03T03:37:04.443Z,11.52
2017-09-03T03:39:31.844Z,11.52
2017-09-03T03:41:59.591Z,11.52
2017-09-03T03:44:26.985Z,11.48
2017-09-03T03:46:54.389Z,11.47
2017-09-03T03:49:21.902Z,11.46
2017-09-03T03:51:49.294Z,11.46
2017-09-03T03:54:16.691Z,11.49
2017-09-03T03:56:44.198Z,11.43
2017-09-03T03:59:11.596Z,11.41
2017-09-03T04:01:39.001Z,11.38
2017-09-03T04:04:06.547Z,11.35
2017-09-03T04:06:33.943Z,11.33
2017-09-03T04:09:01.343Z,11.31
2017-09-03T04:11:28.888Z,11.30
2017-09-03T04:13:56.283Z,11.31
2017-09-03T04:16:23.678Z,11.30
2017-09-03T04:18:51.459Z,11.27
2017-09-03T04:21:18.863Z,11.18
2017-09-03T04:23:46.262Z,11.09
2017-09-03T04:26:13.810Z,11.15
2017-09-03T04:28:41.209Z,11.20
2017-09-03T04:31:08.614Z,11.20
2017-09-03T04:33:36.051Z,11.20
2017-09-03T04:36:03.442Z,11.19
2017-09-03T04:38:30.838Z,11.13
2017-09-03T04:40:58.390Z,11.14
2017-09-03T04:43:25.787Z,11.13
2017-09-03T04:45:53.185Z,11.15
2017-09-03T04:48:20.595Z,11.12
2017-09-03T04:50:47.999Z,11.12
2017-09-03T04:53:15.390Z,11.11
2017-09-03T04:55:42.831Z,11.12
2017-09-03T04:58:10.242Z,11.15
2017-09-03T05:00:37.635Z,11.18
2017-09-03T05:03:05.043Z,11.20
2017-09-03T05:05:32.435Z,11.21
2017-09-03T05:07:59.830Z,11.22
2017-09-03T05:10:27.383Z,11.26
2017-09-03T05:12:54.779Z,11.23
2017-09-03T05:15:22.172Z,11.28
2017-09-03T05:17:49.727Z,11.28
2017-09-03T05:20:17.123Z,11.27
2017-09-03T05:22:44.518Z,11.28
2017-09-03T05:25:12.075Z,11.29
2017-09-03T05:27:39.481Z,11.33
2017-09-03T05:30:06.870Z,11.36
2017-09-03T05:32:34.426Z,11.38
2017-09-03T05:35:01.818Z,11.40
2017-09-03T05:37:29.206Z,11.46
2017-09-03T05:39:56.703Z,11.51
2017-09-03T05:42:24.102Z,11.56
2017-09-03T05:44:51.503Z,11.61
2017-09-03T05:47:19.050Z,11.67
2017-09-03T05:49:46.450Z,11.75
2017-09-03T05:52:13.846Z,11.77
2017-09-03T05:54:41.810Z,11.82
2017-09-03T05:57:09.790Z,11.85
2017-09-03T05:59:37.182Z,11.91
2017-09-03T06:02:04.731Z,11.93
2017-09-03T06:04:32.125Z,11.97
2017-09-03T06:06:59.522Z,11.99
2017-09-03T06:09:27.066Z,12.01
2017-09-03T06:11:54.463Z,12.04
2017-09-03T06:14:21.869Z,12.11
2017-09-03T06:16:49.302Z,12.20
2017-09-03T06:19:16.702Z,12.26
2017-09-03T06:21:44.146Z,12.30
2017-09-03T06:24:11.690Z,12.35
2017-09-03T06:26:39.100Z,12.39
2017-09-03T06:29:06.507Z,12.47
2017-09-03T06:31:34.014Z,12.52
2017-09-03T06:34:01.422Z,12.58
2017-09-03T06:36:32.011Z,12.65
2017-09-03T06:38:59.420Z,12.71
2017-09-03T06:41:26.819Z,12.75
2017-09-03T06:43:54.219Z,12.81
2017-09-03T06:46:21.639Z,12.87
2017-09-03T06:48:49.039Z,12.93
2017-09-03T06:51:16.432Z,13.02
2017-09-03T06:53:43.870Z,13.06
2017-09-03T06:56:11.271Z,13.11
2017-09-03T06:58:38.663Z,13.14
2017-09-03T07:01:06.215Z,13.17
2017-09-03T07:03:33.623Z,13.21
2017-09-03T07:06:01.011Z,13.24
2017-09-03T07:08:28.419Z,13.33
2017-09-03T07:10:55.814Z,13.37
2017-09-03T07:13:23.212Z,13.41
2017-09-03T07:15:50.627Z,13.52
2017-09-03T07:18:18.027Z,13.59
2017-09-03T07:20:45.441Z,13.68
2017-09-03T07:23:12.885Z,13.69
2017-09-03T07:25:40.287Z,13.71
2017-09-03T07:28:07.686Z,13.75
2017-09-03T07:30:35.094Z,13.68
2017-09-03T07:33:02.495Z,13.74
2017-09-03T07:35:29.890Z,13.87
2017-09-03T07:37:57.299Z,13.97
2017-09-03T07:40:24.692Z,14.03
2017-09-03T07:42:52.092Z,14.17
2017-09-03T07:45:19.531Z,14.24
2017-09-03T07:47:46.930Z,14.28
2017-09-03T07:50:14.323Z,14.43
2017-09-03T07:52:42.086Z,14.43
2017-09-03T07:55:09.483Z,14.49
2017-09-03T07:57:36.875Z,14.64
2017-09-03T08:00:04.430Z,14.72
2017-09-03T08:02:31.822Z,14.73
2017-09-03T08:04:59.219Z,14.77
2017-09-03T08:07:26.642Z,14.89
2017-09-03T08:09:54.087Z,14.96
2017-09-03T08:12:21.462Z,14.98
2017-09-03T08:14:49.019Z,15.05
2017-09-03T08:17:16.410Z,15.17
2017-09-03T08:19:43.808Z,15.24
2017-09-03T08:22:11.364Z,15.37
2017-09-03T08:24:38.751Z,15.44
2017-09-03T08:27:06.150Z,15.50
2017-09-03T08:29:33.714Z,15.59
2017-09-03T08:32:01.121Z,15.69
2017-09-03T08:34:28.531Z,15.77
2017-09-03T08:36:55.939Z,15.99
2017-09-03T08:39:23.340Z,16.05
2017-09-03T08:42:03.699Z,16.10
2017-09-03T08:44:31.094Z,16.25
2017-09-03T08:46:59.274Z,16.42
2017-09-03T08:49:26.918Z,16.57
2017-09-03T08:51:54.318Z,16.74
2017-09-03T08:54:21.789Z,16.88
2017-09-03T08:56:49.334Z,16.93
2017-09-03T08:59:16.730Z,17.04
2017-09-03T09:01:44.549Z,17.11
2017-09-03T09:04:12.115Z,17.27
2017-09-03T09:06:39.506Z,17.50
2017-09-03T09:09:06.943Z,17.65
2017-09-03T09:11:34.539Z,17.89
2017-09-03T09:14:02.001Z,18.08
2017-09-03T09:16:30.014Z,18.32
2017-09-03T09:18:57.523Z,18.56
2017-09-03T09:21:27.015Z,18.79
2017-09-03T09:23:54.411Z,19.08
2017-09-03T09:26:21.836Z,19.17
2017-09-03T09:28:49.255Z,19.27
2017-09-03T09:31:16.657Z,19.44
2017-09-03T09:33:44.215Z,19.55
2017-09-03T09:36:11.612Z,19.80
2017-09-03T09:38:39.007Z,20.15
2017-09-03T09:41:06.447Z,20.31
2017-09-03T09:43:33.846Z,20.63
2017-09-03T09:46:01.254Z,21.02
2017-09-03T09:48:28.816Z,21.20
2017-09-03T09:50:56.260Z,21.52
2017-09-03T09:53:23.655Z,21.98
2017-09-03T09:55:51.228Z,22.33
2017-09-03T09:58:18.668Z,22.66
2017-09-03T10:00:46.118Z,22.56
2017-09-03T10:03:13.563Z,22.59
2017-09-03T10:05:41.040Z,22.62
2017-09-03T10:08:08.444Z,22.28
2017-09-03T10:10:35.954Z,22.87
2017-09-03T10:13:03.359Z,23.17
2017-09-03T10:15:30.762Z,23.55
2017-09-03T10:17:58.314Z,23.69
2017-09-03T10:20:25.715Z,23.81
2017-09-03T10:22:53.115Z,24.09
2017-09-03T10:25:20.563Z,24.45
2017-09-03T10:27:47.955Z,24.74
2017-09-03T10:30:15.351Z,24.90
2017-09-03T10:32:42.861Z,25.26
2017-09-03T10:35:10.267Z,25.39
2017-09-03T10:37:37.676Z,25.50
2017-09-03T10:40:05.196Z,25.75
2017-09-03T10:42:32.595Z,25.32
2017-09-03T10:44:59.992Z,24.66
2017-09-03T10:47:27.419Z,24.47
2017-09-03T10:49:54.825Z,24.13
2017-09-03T10:52:22.236Z,23.97
2017-09-03T10:54:49.800Z,23.42
2017-09-03T10:57:17.192Z,22.93
2017-09-03T10:59:45.438Z,22.64
2017-09-03T11:02:12.942Z,23.12
2017-09-03T11:04:40.339Z,23.85
2017-09-03T11:07:07.739Z,24.53
2017-09-03T11:09:35.292Z,25.16
2017-09-03T11:12:02.686Z,25.65
2017-09-03T11:14:30.091Z,25.16
2017-09-03T11:16:57.642Z,25.09
2017-09-03T11:19:25.045Z,25.26
2017-09-03T11:21:52.455Z,25.07
2017-09-03T11:24:19.875Z,24.85
2017-09-03T11:26:47.275Z,24.73
2017-09-03T11:29:14.673Z,24.40
2017-09-03T11:31:42.079Z,24.57
2017-09-03T11:34:09.486Z,24.63
2017-09-03T11:36:36.866Z,25.30
2017-09-03T11:39:04.310Z,25.88
2017-09-03T11:41:31.710Z,26.20
2017-09-03T11:43:59.108Z,26.32
2017-09-03T11:46:26.659Z,26.33
2017-09-03T11:48:54.056Z,26.61
2017-09-03T11:51:21.502Z,26.88
2017-09-03T11:53:49.066Z,27.19
2017-09-03T11:56:16.462Z,26.74
2017-09-03T11:58:43.859Z,26.57
2017-09-03T12:01:11.271Z,26.34
2017-09-03T12:03:38.667Z,25.82
2017-09-03T12:06:06.063Z,24.94
2017-09-03T12:08:33.507Z,24.91
2017-09-03T12:11:00.915Z,25.18
2017-09-03T12:13:28.314Z,25.75
2017-09-03T12:15:55.827Z,25.88
2017-09-03T12:18:23.223Z,26.30
2017-09-03T12:20:50.634Z,26.54
2017-09-03T12:23:18.171Z,26.85
2017-09-03T12:25:46.399Z,27.24
2017-09-03T12:28:13.796Z,27.49
2017-09-03T12:30:41.235Z,27.56
2017-09-03T12:33:08.648Z,27.61
2017-09-03T12:35:42.478Z,27.71
2017-09-03T12:38:09.874Z,27.24
2017-09-03T12:40:37.267Z,27.32
2017-09-03T12:43:04.684Z,27.22
2017-09-03T12:45:32.074Z,27.05
2017-09-03T12:47:59.503Z,26.93
2017-09-03T12:50:26.895Z,26.16
2017-09-03T12:52:54.302Z,25.49
2017-09-03T12:55:21.719Z,24.99
2017-09-03T12:57:49.118Z,24.90
2017-09-03T13:00:17.203Z,25.17
2017-09-03T13:02:44.613Z,25.20
2017-09-03T13:05:12.011Z,25.42
2017-09-03T13:07:39.411Z,25.13
2017-09-03T13:10:06.815Z,25.56
2017-09-03T13:12:34.234Z,25.97
2017-09-03T13:15:01.642Z,26.18
2017-09-03T13:17:29.035Z,26.44
2017-09-03T13:19:56.438Z,26.58
2017-09-03T13:22:23.835Z,26.60
2017-09-03T13:24:51.271Z,26.18
2017-09-03T13:27:18.671Z,26.17
2017-09-03T13:29:46.058Z,26.33
2017-09-03T13:32:13.462Z,26.41
2017-09-03T13:34:40.861Z,26.34
2017-09-03T13:37:08.367Z,26.29
2017-09-03T13:39:35.780Z,26.37
2017-09-03T13:42:03.179Z,26.49
2017-09-03T13:44:30.573Z,26.51
2017-09-03T13:46:57.968Z,26.37
2017-09-03T13:49:25.414Z,26.28
2017-09-03T13:51:52.824Z,26.21
2017-09-03T13:54:20.228Z,26.19
2017-09-03T13:56:47.651Z,26.20
2017-09-03T13:59:15.020Z,26.07
2017-09-03T14:01:42.571Z,25.88
2017-09-03T14:04:09.962Z,25.55
2017-09-03T14:06:37.354Z,25.38
2017-09-03T14:09:04.759Z,25.36
2017-09-03T14:11:32.163Z,25.26
2017-09-03T14:13:59.906Z,24.65
2017-09-03T14:16:27.298Z,24.66
2017-09-03T14:18:54.698Z,24.64
2017-09-03T14:21:22.104Z,24.69
2017-09-03T14:23:49.501Z,24.69
2017-09-03T14:26:17.011Z,24.54
2017-09-03T14:28:44.410Z,24.52
2017-09-03T14:31:11.818Z,24.47
2017-09-03T14:33:39.219Z,24.48
2017-09-03T14:36:06.615Z,24.40
2017-09-03T14:38:34.038Z,24.46
2017-09-03T14:41:01.438Z,24.33
2017-09-03T14:43:28.834Z,23.84
2017-09-03T14:45:56.243Z,23.58
2017-09-03T14:48:23.682Z,23.63
2017-09-03T14:50:51.233Z,23.49
2017-09-03T14:53:18.627Z,23.56
2017-09-03T14:55:46.468Z,23.61
2017-09-03T14:58:14.207Z,23.50
2017-09-03T15:00:41.607Z,23.39
2017-09-03T15:03:09.047Z,23.28
2017-09-03T15:05:36.444Z,23.40
2017-09-03T15:08:03.848Z,23.61
2017-09-03T15:10:31.238Z,23.81
2017-09-03T15:12:58.637Z,24.04
2017-09-03T15:15:26.163Z,24.23
2017-09-03T15:17:53.555Z,24.40
2017-09-03T15:20:20.955Z,24.42
2017-09-03T15:22:48.351Z,24.41
2017-09-03T15:25:15.742Z,24.34
2017-09-03T15:27:43.150Z,24.22
2017-09-03T15:30:10.551Z,24.22
2017-09-03T15:32:38.071Z,24.21
2017-09-03T15:35:05.471Z,24.19
2017-09-03T15:37:39.182Z,24.06
2017-09-03T15:40:06.585Z,23.96
2017-09-03T15:42:33.977Z,23.91
2017-09-03T15:45:01.375Z,23.90
2017-09-03T15:47:28.774Z,23.88
2017-09-03T15:49:56.326Z,23.81
2017-09-03T15:52:23.719Z,23.76
2017-09-03T15:54:51.117Z,23.64
2017-09-03T15:57:18.527Z,23.46
2017-09-03T15:59:45.927Z,23.28
2017-09-03T16:02:13.342Z,23.05
2017-09-03T16:04:40.747Z,22.91
2017-09-03T16:07:08.172Z,22.80
2017-09-03T16:09:35.582Z,22.67
2017-09-03T16:12:03.034Z,22.50
2017-09-03T16:14:30.586Z,22.38
2017-09-03T16:16:57.982Z,22.28
2017-09-03T16:19:25.379Z,22.17
2017-09-03T16:21:52.785Z,22.05
2017-09-03T16:24:20.184Z,21.95
2017-09-03T16:26:47.726Z,21.84
2017-09-03T16:29:15.118Z,21.72
2017-09-03T16:31:42.519Z,21.62
2017-09-03T16:34:09.926Z,21.47
2017-09-03T16:36:37.336Z,21.32
2017-09-03T16:39:04.971Z,21.17
2017-09-03T16:41:32.363Z,21.02
2017-09-03T16:43:59.760Z,20.86
2017-09-03T16:46:27.171Z,20.74
2017-09-03T16:48:54.579Z,20.65
2017-09-03T16:51:21.991Z,20.57
2017-09-03T16:53:49.391Z,20.54
2017-09-03T16:56:16.786Z,20.53
2017-09-03T16:58:44.183Z,20.54
2017-09-03T17:01:11.579Z,20.57
2017-09-03T17:03:39.107Z,20.57
2017-09-03T17:06:06.506Z,20.57
2017-09-03T17:08:34.871Z,20.61
2017-09-03T17:11:02.338Z,20.61
2017-09-03T17:13:29.736Z,20.62
2017-09-03T17:15:57.292Z,20.59
2017-09-03T17:18:24.683Z,20.60
2017-09-03T17:20:54.090Z,20.60
2017-09-03T17:23:21.518Z,20.57
2017-09-03T17:25:48.916Z,20.57
2017-09-03T17:28:16.462Z,20.56
2017-09-03T17:30:46.200Z,20.53
2017-09-03T17:33:13.657Z,20.51
2017-09-03T17:35:41.987Z,20.48
2017-09-03T17:38:17.791Z,20.46
2017-09-03T17:40:48.752Z,20.44
2017-09-03T17:43:16.491Z,20.41
2017-09-03T17:45:46.244Z,20.34
2017-09-03T17:48:13.639Z,20.25
2017-09-03T17:50:41.168Z,20.16
2017-09-03T17:53:08.558Z,20.09
2017-09-03T17:55:35.960Z,20.03
2017-09-03T17:58:03.371Z,19.97
2017-09-03T18:00:30.771Z,19.90
2017-09-03T18:02:58.284Z,19.86
2017-09-03T18:05:25.678Z,19.80
2017-09-03T18:07:53.073Z,19.75
2017-09-03T18:10:20.481Z,19.69
2017-09-03T18:12:47.884Z,19.62
2017-09-03T18:15:15.399Z,19.58
2017-09-03T18:17:42.791Z,19.56
2017-09-03T18:20:10.194Z,19.52
2017-09-03T18:22:37.622Z,19.47
2017-09-03T18:25:05.027Z,19.44
2017-09-03T18:27:32.582Z,19.39
2017-09-03T18:30:00.170Z,19.34
2017-09-03T18:32:27.631Z,19.28
2017-09-03T18:34:55.045Z,19.25
2017-09-03T18:37:23.352Z,19.23
2017-09-03T18:40:02.464Z,19.22
2017-09-03T18:42:30.640Z,19.19
2017-09-03T18:44:58.056Z,19.12
2017-09-03T18:47:25.451Z,19.13
2017-09-03T18:49:52.860Z,19.12
2017-09-03T18:52:25.791Z,19.10
2017-09-03T18:54:53.196Z,19.05
2017-09-03T18:57:22.426Z,18.99
2017-09-03T19:03:02.381Z,18.89
2017-09-03T19:05:31.291Z,18.86
2017-09-03T19:07:58.697Z,18.78
2017-09-03T19:10:26.100Z,18.69
2017-09-03T19:12:53.491Z,18.62
2017-09-03T19:15:20.910Z,18.48
2017-09-03T19:17:48.302Z,18.49
2017-09-03T19:20:15.702Z,18.48
2017-09-03T19:22:43.115Z,18.37
2017-09-03T19:25:10.522Z,18.26
2017-09-03T19:27:38.079Z,18.23
2017-09-03T19:30:05.478Z,18.15
2017-09-03T19:32:32.875Z,18.05
2017-09-03T19:35:00.308Z,17.98
2017-09-03T19:37:29.043Z,17.92
2017-09-03T19:39:56.555Z,17.85
2017-09-03T19:42:23.950Z,17.78
2017-09-03T19:44:51.346Z,17.76
2017-09-03T19:47:18.755Z,17.74
2017-09-03T19:49:46.151Z,17.71
2017-09-03T19:52:13.654Z,17.65
2017-09-03T19:54:41.055Z,17.60
2017-09-03T19:57:08.446Z,17.56
2017-09-03T19:59:35.846Z,17.54
2017-09-03T20:02:03.242Z,17.53
2017-09-03T20:04:30.758Z,17.49
2017-09-03T20:06:58.152Z,17.49
2017-09-03T20:09:25.552Z,17.47
2017-09-03T20:11:52.954Z,17.44
2017-09-03T20:14:20.361Z,17.43
2017-09-03T20:16:47.887Z,17.43
2017-09-03T20:19:15.287Z,17.38
2017-09-03T20:21:42.685Z,17.37
2017-09-03T20:24:10.089Z,17.38
2017-09-03T20:26:37.486Z,17.40
2017-09-03T20:29:04.955Z,17.35
2017-09-03T20:31:32.339Z,17.37
2017-09-03T20:33:59.734Z,17.17
2017-09-03T20:36:27.159Z,17.19
2017-09-03T20:38:54.554Z,17.28
2017-09-03T20:41:22.115Z,17.32
2017-09-03T20:43:49.523Z,17.37
2017-09-03T20:46:16.928Z,17.38
2017-09-03T20:48:44.318Z,17.37
2017-09-03T20:51:11.747Z,17.33
2017-09-03T20:53:39.349Z,17.32
2017-09-03T20:56:06.750Z,17.30
2017-09-03T20:58:34.183Z,17.25
2017-09-03T21:01:01.601Z,17.23
2017-09-03T21:03:29.008Z,17.20
2017-09-03T21:05:57.339Z,17.15
2017-09-03T21:08:24.808Z,17.06
2017-09-03T21:10:52.209Z,16.97
2017-09-03T21:13:19.603Z,16.83
2017-09-03T21:15:47.851Z,16.81
2017-09-03T21:18:15.707Z,16.73
2017-09-03T21:20:43.108Z,16.61
2017-09-03T21:23:10.508Z,16.58
2017-09-03T21:25:37.911Z,16.54
2017-09-03T21:28:05.434Z,16.49
2017-09-03T21:30:32.834Z,16.48
2017-09-03T21:33:00.238Z,16.39
2017-09-03T21:35:27.639Z,16.31
2017-09-03T21:37:55.195Z,16.31
2017-09-03T21:40:22.594Z,16.27
2017-09-03T21:42:50.347Z,16.22
2017-09-03T21:45:17.744Z,16.13
2017-09-03T21:47:45.147Z,16.09
2017-09-03T21:50:12.551Z,16.05
2017-09-03T21:52:39.951Z,15.99
2017-09-03T21:55:07.479Z,15.90
2017-09-03T21:57:34.878Z,15.85
2017-09-03T22:00:02.279Z,15.82
2017-09-03T22:02:30.018Z,15.79
2017-09-03T22:04:57.415Z,15.71
2017-09-03T22:07:24.819Z,15.67
2017-09-03T22:09:52.223Z,15.79
2017-09-03T22:12:19.624Z,15.78
2017-09-03T22:14:47.018Z,15.79
2017-09-03T22:17:14.434Z,15.74
2017-09-03T22:19:41.830Z,15.75
2017-09-03T22:22:09.239Z,15.76
2017-09-03T22:24:36.647Z,15.74
2017-09-03T22:27:04.041Z,15.71
2017-09-03T22:29:31.486Z,15.70
2017-09-03T22:31:58.895Z,15.68
2017-09-03T22:34:26.294Z,15.67
2017-09-03T22:36:53.803Z,15.65
2017-09-03T22:39:21.189Z,15.66
2017-09-03T22:41:48.588Z,15.60
2017-09-03T22:44:15.994Z,15.58
2017-09-03T22:46:43.390Z,15.58
2017-09-03T22:49:10.898Z,15.59
2017-09-03T22:51:38.304Z,15.59
2017-09-03T22:54:05.690Z,15.52
2017-09-03T22:56:33.107Z,15.46
2017-09-03T22:59:00.511Z,15.47
2017-09-03T23:01:28.068Z,15.46
2017-09-03T23:03:55.468Z,15.38
2017-09-03T23:06:22.862Z,15.37
2017-09-03T23:08:50.282Z,15.34
2017-09-03T23:11:17.678Z,15.31
2017-09-03T23:13:45.190Z,15.32
2017-09-03T23:16:12.587Z,15.33
2017-09-03T23:18:40.010Z,15.33
2017-09-03T23:21:07.410Z,15.32
2017-09-03T23:23:34.806Z,15.29
2017-09-03T23:26:02.244Z,15.24
2017-09-03T23:28:29.641Z,15.19
2017-09-03T23:30:57.045Z,15.15
2017-09-03T23:33:24.452Z,15.09
2017-09-03T23:35:51.855Z,15.04
2017-09-03T23:38:19.374Z,15.03
2017-09-03T23:40:46.803Z,14.98
2017-09-03T23:43:14.211Z,15.04
2017-09-03T23:45:41.618Z,15.03
2017-09-03T23:48:09.015Z,15.02
2017-09-03T23:50:36.698Z,15.02
2017-09-03T23:53:04.094Z,15.05
2017-09-03T23:55:31.494Z,15.06
2017-09-03T23:57:58.907Z,15.03
